sensor_id;sensor_type;location;lat;lon;timestamp;temperature;humidity
39237;DHT22;36851;49.996;8.268;2022-08-05T00:01:30;29.20;82.90
39237;DHT22;36851;49.996;8.268;2022-08-05T00:04:15;29.00;83.90
39237;DHT22;36851;49.996;8.268;2022-08-05T00:06:43;28.80;84.50
39237;DHT22;36851;49.996;8.268;2022-08-05T00:09:13;28.80;85.00
39237;DHT22;36851;49.996;8.268;2022-08-05T00:11:41;28.80;84.90
39237;DHT22;36851;49.996;8.268;2022-08-05T00:14:15;28.80;84.50
39237;DHT22;36851;49.996;8.268;2022-08-05T00:16:43;28.90;84.40
39237;DHT22;36851;49.996;8.268;2022-08-05T00:19:20;29.00;84.30
39237;DHT22;36851;49.996;8.268;2022-08-05T00:21:48;29.10;84.10
39237;DHT22;36851;49.996;8.268;2022-08-05T00:24:15;29.10;84.30
39237;DHT22;36851;49.996;8.268;2022-08-05T00:26:50;29.10;84.30
39237;DHT22;36851;49.996;8.268;2022-08-05T00:29:19;29.10;84.10
39237;DHT22;36851;49.996;8.268;2022-08-05T00:31:48;29.20;84.20
39237;DHT22;36851;49.996;8.268;2022-08-05T00:34:36;29.20;84.00
39237;DHT22;36851;49.996;8.268;2022-08-05T00:37:23;29.20;84.10
39237;DHT22;36851;49.996;8.268;2022-08-05T00:39:50;29.20;84.20
39237;DHT22;36851;49.996;8.268;2022-08-05T00:42:32;29.20;84.20
39237;DHT22;36851;49.996;8.268;2022-08-05T00:44:59;29.20;84.30
39237;DHT22;36851;49.996;8.268;2022-08-05T00:47:27;29.20;84.00
39237;DHT22;36851;49.996;8.268;2022-08-05T00:50:14;29.20;84.10
39237;DHT22;36851;49.996;8.268;2022-08-05T00:52:41;29.20;84.30
39237;DHT22;36851;49.996;8.268;2022-08-05T00:55:12;29.20;84.20
39237;DHT22;36851;49.996;8.268;2022-08-05T00:57:40;29.20;84.40
39237;DHT22;36851;49.996;8.268;2022-08-05T01:00:25;29.20;84.40
39237;DHT22;36851;49.996;8.268;2022-08-05T01:02:54;29.20;84.40
39237;DHT22;36851;49.996;8.268;2022-08-05T01:05:22;29.20;84.20
39237;DHT22;36851;49.996;8.268;2022-08-05T01:07:50;29.20;84.40
39237;DHT22;36851;49.996;8.268;2022-08-05T01:10:58;29.20;84.30
39237;DHT22;36851;49.996;8.268;2022-08-05T01:13:38;29.20;84.40
39237;DHT22;36851;49.996;8.268;2022-08-05T01:16:28;29.20;84.20
39237;DHT22;36851;49.996;8.268;2022-08-05T01:19:09;29.20;84.30
39237;DHT22;36851;49.996;8.268;2022-08-05T01:29:51;29.20;84.40
39237;DHT22;36851;49.996;8.268;2022-08-05T01:32:21;29.20;84.50
39237;DHT22;36851;49.996;8.268;2022-08-05T01:34:54;29.20;84.60
39237;DHT22;36851;49.996;8.268;2022-08-05T01:39:54;29.20;84.60
39237;DHT22;36851;49.996;8.268;2022-08-05T01:42:25;29.20;84.70
39237;DHT22;36851;49.996;8.268;2022-08-05T01:44:54;29.20;84.70
39237;DHT22;36851;49.996;8.268;2022-08-05T01:47:25;29.20;84.90
39237;DHT22;36851;49.996;8.268;2022-08-05T01:50:07;29.20;84.80
39237;DHT22;36851;49.996;8.268;2022-08-05T01:52:42;29.20;85.10
39237;DHT22;36851;49.996;8.268;2022-08-05T01:55:10;29.20;85.10
39237;DHT22;36851;49.996;8.268;2022-08-05T01:57:42;29.20;85.00
39237;DHT22;36851;49.996;8.268;2022-08-05T02:00:30;29.20;85.20
39237;DHT22;36851;49.996;8.268;2022-08-05T02:03:22;29.20;85.20
39237;DHT22;36851;49.996;8.268;2022-08-05T02:05:58;29.20;85.30
39237;DHT22;36851;49.996;8.268;2022-08-05T02:08:29;29.20;85.20
39237;DHT22;36851;49.996;8.268;2022-08-05T02:11:10;29.20;85.40
39237;DHT22;36851;49.996;8.268;2022-08-05T02:16:23;29.20;85.40
39237;DHT22;36851;49.996;8.268;2022-08-05T02:19:00;29.20;85.50
39237;DHT22;36851;49.996;8.268;2022-08-05T02:21:34;29.20;85.60
39237;DHT22;36851;49.996;8.268;2022-08-05T02:24:14;29.20;85.60
39237;DHT22;36851;49.996;8.268;2022-08-05T02:26:45;29.20;85.60
39237;DHT22;36851;49.996;8.268;2022-08-05T02:29:21;29.20;85.80
39237;DHT22;36851;49.996;8.268;2022-08-05T02:32:10;29.20;85.80
39237;DHT22;36851;49.996;8.268;2022-08-05T02:34:50;29.20;85.90
39237;DHT22;36851;49.996;8.268;2022-08-05T02:37:20;29.20;85.90
39237;DHT22;36851;49.996;8.268;2022-08-05T02:39:49;29.20;85.90
39237;DHT22;36851;49.996;8.268;2022-08-05T02:42:18;29.20;85.90
39237;DHT22;36851;49.996;8.268;2022-08-05T02:44:52;29.20;86.10
39237;DHT22;36851;49.996;8.268;2022-08-05T02:47:19;29.20;86.00
39237;DHT22;36851;49.996;8.268;2022-08-05T02:49:47;29.20;86.00
39237;DHT22;36851;49.996;8.268;2022-08-05T02:52:18;29.10;86.00
39237;DHT22;36851;49.996;8.268;2022-08-05T02:54:57;29.20;86.10
39237;DHT22;36851;49.996;8.268;2022-08-05T02:57:31;29.20;86.20
39237;DHT22;36851;49.996;8.268;2022-08-05T03:00:19;29.20;86.00
39237;DHT22;36851;49.996;8.268;2022-08-05T03:02:46;29.20;86.00
39237;DHT22;36851;49.996;8.268;2022-08-05T03:05:14;29.20;86.10
39237;DHT22;36851;49.996;8.268;2022-08-05T03:07:42;29.20;86.40
39237;DHT22;36851;49.996;8.268;2022-08-05T03:10:30;29.20;86.40
39237;DHT22;36851;49.996;8.268;2022-08-05T03:12:57;29.10;86.40
39237;DHT22;36851;49.996;8.268;2022-08-05T03:15:26;29.20;86.40
39237;DHT22;36851;49.996;8.268;2022-08-05T03:17:54;29.10;86.40
39237;DHT22;36851;49.996;8.268;2022-08-05T03:20:23;29.20;86.60
39237;DHT22;36851;49.996;8.268;2022-08-05T03:22:51;29.10;86.50
39237;DHT22;36851;49.996;8.268;2022-08-05T03:25:23;29.10;86.60
39237;DHT22;36851;49.996;8.268;2022-08-05T03:28:11;29.10;86.60
39237;DHT22;36851;49.996;8.268;2022-08-05T03:30:40;29.10;86.70
39237;DHT22;36851;49.996;8.268;2022-08-05T03:33:08;29.10;86.80
39237;DHT22;36851;49.996;8.268;2022-08-05T03:35:35;29.10;86.80
39237;DHT22;36851;49.996;8.268;2022-08-05T03:38:10;29.10;86.90
39237;DHT22;36851;49.996;8.268;2022-08-05T03:40:40;29.10;87.00
39237;DHT22;36851;49.996;8.268;2022-08-05T03:43:13;29.10;86.80
39237;DHT22;36851;49.996;8.268;2022-08-05T03:46:01;29.10;87.10
39237;DHT22;36851;49.996;8.268;2022-08-05T03:48:28;29.10;86.60
39237;DHT22;36851;49.996;8.268;2022-08-05T03:57:08;29.20;87.50
39237;DHT22;36851;49.996;8.268;2022-08-05T03:59:44;29.20;87.70
39237;DHT22;36851;49.996;8.268;2022-08-05T04:02:24;29.10;87.90
39237;DHT22;36851;49.996;8.268;2022-08-05T04:05:11;29.10;88.60
39237;DHT22;36851;49.996;8.268;2022-08-05T04:07:38;28.80;90.10
39237;DHT22;36851;49.996;8.268;2022-08-05T04:10:25;28.70;90.60
39237;DHT22;36851;49.996;8.268;2022-08-05T04:12:54;28.50;90.60
39237;DHT22;36851;49.996;8.268;2022-08-05T04:15:27;28.40;90.70
39237;DHT22;36851;49.996;8.268;2022-08-05T04:18:00;28.40;90.90
39237;DHT22;36851;49.996;8.268;2022-08-05T04:20:27;28.40;90.70
39237;DHT22;36851;49.996;8.268;2022-08-05T04:22:54;28.40;90.70
39237;DHT22;36851;49.996;8.268;2022-08-05T04:25:22;28.40;90.40
39237;DHT22;36851;49.996;8.268;2022-08-05T04:28:10;28.40;90.40
39237;DHT22;36851;49.996;8.268;2022-08-05T04:30:38;28.30;90.80
39237;DHT22;36851;49.996;8.268;2022-08-05T04:33:08;28.20;90.90
39237;DHT22;36851;49.996;8.268;2022-08-05T04:35:36;28.20;91.10
39237;DHT22;36851;49.996;8.268;2022-08-05T04:38:23;28.20;91.00
39237;DHT22;36851;49.996;8.268;2022-08-05T04:41:06;28.10;91.30
39237;DHT22;36851;49.996;8.268;2022-08-05T04:43:38;28.00;91.50
39237;DHT22;36851;49.996;8.268;2022-08-05T04:46:18;28.00;91.50
39237;DHT22;36851;49.996;8.268;2022-08-05T04:48:54;28.00;91.70
39237;DHT22;36851;49.996;8.268;2022-08-05T04:51:24;28.00;91.60
39237;DHT22;36851;49.996;8.268;2022-08-05T04:53:56;28.10;91.60
39237;DHT22;36851;49.996;8.268;2022-08-05T04:56:27;28.00;91.50
39237;DHT22;36851;49.996;8.268;2022-08-05T04:59:03;28.00;91.60
39237;DHT22;36851;49.996;8.268;2022-08-05T05:01:50;28.10;91.60
39237;DHT22;36851;49.996;8.268;2022-08-05T05:04:38;28.10;91.50
39237;DHT22;36851;49.996;8.268;2022-08-05T05:07:10;28.10;91.70
39237;DHT22;36851;49.996;8.268;2022-08-05T05:09:41;27.90;91.60
39237;DHT22;36851;49.996;8.268;2022-08-05T05:12:10;27.90;91.70
39237;DHT22;36851;49.996;8.268;2022-08-05T05:14:37;27.70;91.90
39237;DHT22;36851;49.996;8.268;2022-08-05T05:17:16;27.70;92.10
39237;DHT22;36851;49.996;8.268;2022-08-05T05:19:51;27.60;92.50
39237;DHT22;36851;49.996;8.268;2022-08-05T05:22:19;27.70;92.10
39237;DHT22;36851;49.996;8.268;2022-08-05T05:24:52;27.60;92.00
39237;DHT22;36851;49.996;8.268;2022-08-05T05:27:24;27.50;92.20
39237;DHT22;36851;49.996;8.268;2022-08-05T05:30:14;27.30;92.40
39237;DHT22;36851;49.996;8.268;2022-08-05T05:32:58;27.30;92.50
39237;DHT22;36851;49.996;8.268;2022-08-05T05:35:29;27.30;92.90
39237;DHT22;36851;49.996;8.268;2022-08-05T05:38:04;27.40;93.00
39237;DHT22;36851;49.996;8.268;2022-08-05T05:40:40;27.60;92.80
39237;DHT22;36851;49.996;8.268;2022-08-05T05:43:16;27.70;92.50
39237;DHT22;36851;49.996;8.268;2022-08-05T05:46:03;27.80;92.30
39237;DHT22;36851;49.996;8.268;2022-08-05T05:48:33;27.80;92.10
39237;DHT22;36851;49.996;8.268;2022-08-05T05:51:00;27.80;92.10
39237;DHT22;36851;49.996;8.268;2022-08-05T05:53:42;27.90;91.90
39237;DHT22;36851;49.996;8.268;2022-08-05T05:56:27;27.90;91.80
39237;DHT22;36851;49.996;8.268;2022-08-05T05:59:03;28.00;91.80
39237;DHT22;36851;49.996;8.268;2022-08-05T06:01:33;28.00;91.60
39237;DHT22;36851;49.996;8.268;2022-08-05T06:04:08;27.90;91.50
39237;DHT22;36851;49.996;8.268;2022-08-05T06:06:39;27.80;91.60
39237;DHT22;36851;49.996;8.268;2022-08-05T06:09:08;27.80;91.80
39237;DHT22;36851;49.996;8.268;2022-08-05T06:11:43;27.80;91.70
39237;DHT22;36851;49.996;8.268;2022-08-05T06:14:28;27.90;91.60
39237;DHT22;36851;49.996;8.268;2022-08-05T06:16:56;27.90;91.50
39237;DHT22;36851;49.996;8.268;2022-08-05T06:19:25;27.90;91.30
39237;DHT22;36851;49.996;8.268;2022-08-05T06:22:02;28.00;91.40
39237;DHT22;36851;49.996;8.268;2022-08-05T06:24:30;28.00;91.40
39237;DHT22;36851;49.996;8.268;2022-08-05T06:26:57;28.00;91.40
39237;DHT22;36851;49.996;8.268;2022-08-05T06:29:24;28.10;91.10
39237;DHT22;36851;49.996;8.268;2022-08-05T06:32:11;28.10;91.10
39237;DHT22;36851;49.996;8.268;2022-08-05T06:34:53;28.10;91.10
39237;DHT22;36851;49.996;8.268;2022-08-05T06:37:26;28.10;91.10
39237;DHT22;36851;49.996;8.268;2022-08-05T06:40:13;28.10;91.10
39237;DHT22;36851;49.996;8.268;2022-08-05T06:42:49;28.00;91.40
39237;DHT22;36851;49.996;8.268;2022-08-05T06:45:18;27.90;91.50
39237;DHT22;36851;49.996;8.268;2022-08-05T06:47:47;27.80;91.50
39237;DHT22;36851;49.996;8.268;2022-08-05T06:50:34;27.90;91.40
39237;DHT22;36851;49.996;8.268;2022-08-05T06:53:01;28.00;91.20
39237;DHT22;36851;49.996;8.268;2022-08-05T06:55:45;27.90;91.20
39237;DHT22;36851;49.996;8.268;2022-08-05T06:58:12;27.90;91.40
39237;DHT22;36851;49.996;8.268;2022-08-05T07:01:00;27.90;91.50
39237;DHT22;36851;49.996;8.268;2022-08-05T07:03:27;27.90;91.50
39237;DHT22;36851;49.996;8.268;2022-08-05T07:05:58;27.90;91.70
39237;DHT22;36851;49.996;8.268;2022-08-05T07:08:25;27.80;92.10
39237;DHT22;36851;49.996;8.268;2022-08-05T07:10:54;27.80;92.60
39237;DHT22;36851;49.996;8.268;2022-08-05T07:13:22;27.80;92.90
39237;DHT22;36851;49.996;8.268;2022-08-05T07:16:26;27.80;92.80
39237;DHT22;36851;49.996;8.268;2022-08-05T07:19:32;27.90;93.40
39237;DHT22;36851;49.996;8.268;2022-08-05T07:22:19;28.00;93.60
39237;DHT22;36851;49.996;8.268;2022-08-05T07:24:56;28.00;93.50
39237;DHT22;36851;49.996;8.268;2022-08-05T07:27:23;28.00;93.90
39237;DHT22;36851;49.996;8.268;2022-08-05T07:29:55;28.00;94.00
39237;DHT22;36851;49.996;8.268;2022-08-05T07:32:42;28.00;93.90
39237;DHT22;36851;49.996;8.268;2022-08-05T07:35:16;28.10;93.70
39237;DHT22;36851;49.996;8.268;2022-08-05T07:38:04;28.10;93.50
39237;DHT22;36851;49.996;8.268;2022-08-05T07:40:38;28.10;93.60
39237;DHT22;36851;49.996;8.268;2022-08-05T07:43:10;28.10;93.40
39237;DHT22;36851;49.996;8.268;2022-08-05T07:45:47;28.10;93.40
39237;DHT22;36851;49.996;8.268;2022-08-05T07:48:24;28.10;93.00
39237;DHT22;36851;49.996;8.268;2022-08-05T07:51:12;28.10;93.20
39237;DHT22;36851;49.996;8.268;2022-08-05T07:54:01;28.10;93.10
39237;DHT22;36851;49.996;8.268;2022-08-05T07:56:29;28.10;93.40
39237;DHT22;36851;49.996;8.268;2022-08-05T07:59:16;28.10;93.30
39237;DHT22;36851;49.996;8.268;2022-08-05T08:01:49;28.20;93.10
39237;DHT22;36851;49.996;8.268;2022-08-05T08:04:23;28.30;93.50
39237;DHT22;36851;49.996;8.268;2022-08-05T08:07:04;28.40;94.00
39237;DHT22;36851;49.996;8.268;2022-08-05T08:09:33;28.50;94.20
39237;DHT22;36851;49.996;8.268;2022-08-05T08:12:00;28.50;94.30
39237;DHT22;36851;49.996;8.268;2022-08-05T08:14:43;28.60;94.30
39237;DHT22;36851;49.996;8.268;2022-08-05T08:17:13;28.60;94.50
39237;DHT22;36851;49.996;8.268;2022-08-05T08:19:47;28.60;95.20
39237;DHT22;36851;49.996;8.268;2022-08-05T08:22:34;28.60;94.70
39237;DHT22;36851;49.996;8.268;2022-08-05T08:25:02;28.40;91.80
39237;DHT22;36851;49.996;8.268;2022-08-05T08:27:42;28.20;90.90
39237;DHT22;36851;49.996;8.268;2022-08-05T08:30:14;27.90;90.80
39237;DHT22;36851;49.996;8.268;2022-08-05T08:33:05;27.90;90.70
39237;DHT22;36851;49.996;8.268;2022-08-05T08:35:35;27.70;90.70
39237;DHT22;36851;49.996;8.268;2022-08-05T08:38:07;27.70;90.70
39237;DHT22;36851;49.996;8.268;2022-08-05T08:40:42;27.70;90.40
39237;DHT22;36851;49.996;8.268;2022-08-05T08:43:17;27.80;89.90
39237;DHT22;36851;49.996;8.268;2022-08-05T08:46:05;27.70;88.50
39237;DHT22;36851;49.996;8.268;2022-08-05T08:48:36;27.60;88.00
39237;DHT22;36851;49.996;8.268;2022-08-05T08:51:26;27.60;87.30
39237;DHT22;36851;49.996;8.268;2022-08-05T08:54:13;27.70;87.40
39237;DHT22;36851;49.996;8.268;2022-08-05T08:56:41;27.70;87.00
39237;DHT22;36851;49.996;8.268;2022-08-05T08:59:16;27.70;86.70
39237;DHT22;36851;49.996;8.268;2022-08-05T09:01:46;27.50;86.70
39237;DHT22;36851;49.996;8.268;2022-08-05T09:04:23;27.60;87.10
39237;DHT22;36851;49.996;8.268;2022-08-05T09:06:56;27.70;87.00
39237;DHT22;36851;49.996;8.268;2022-08-05T09:09:24;27.80;86.90
39237;DHT22;36851;49.996;8.268;2022-08-05T09:12:06;27.80;86.60
39237;DHT22;36851;49.996;8.268;2022-08-05T09:14:53;27.90;86.60
39237;DHT22;36851;49.996;8.268;2022-08-05T09:17:31;28.00;86.60
39237;DHT22;36851;49.996;8.268;2022-08-05T09:20:07;28.00;86.50
39237;DHT22;36851;49.996;8.268;2022-08-05T09:25:31;28.00;86.90
39237;DHT22;36851;49.996;8.268;2022-08-05T09:28:19;28.10;86.90
39237;DHT22;36851;49.996;8.268;2022-08-05T09:30:56;28.10;87.00
39237;DHT22;36851;49.996;8.268;2022-08-05T09:33:23;28.10;87.20
39237;DHT22;36851;49.996;8.268;2022-08-05T09:36:02;28.00;87.40
39237;DHT22;36851;49.996;8.268;2022-08-05T09:38:37;28.10;87.30
39237;DHT22;36851;49.996;8.268;2022-08-05T09:41:06;28.10;87.00
39237;DHT22;36851;49.996;8.268;2022-08-05T09:43:35;28.10;87.00
39237;DHT22;36851;49.996;8.268;2022-08-05T09:46:22;28.10;86.90
39237;DHT22;36851;49.996;8.268;2022-08-05T09:48:55;28.10;87.40
39237;DHT22;36851;49.996;8.268;2022-08-05T09:51:35;28.10;87.10
39237;DHT22;36851;49.996;8.268;2022-08-05T09:54:05;28.20;87.10
39237;DHT22;36851;49.996;8.268;2022-08-05T09:56:35;28.20;87.00
39237;DHT22;36851;49.996;8.268;2022-08-05T09:59:07;28.20;87.10
39237;DHT22;36851;49.996;8.268;2022-08-05T10:01:40;28.20;87.10
39237;DHT22;36851;49.996;8.268;2022-08-05T10:04:12;28.20;87.20
39237;DHT22;36851;49.996;8.268;2022-08-05T10:07:01;28.20;86.80
39237;DHT22;36851;49.996;8.268;2022-08-05T10:10:04;28.20;86.70
39237;DHT22;36851;49.996;8.268;2022-08-05T10:12:45;28.20;86.60
39237;DHT22;36851;49.996;8.268;2022-08-05T10:20:35;28.20;87.00
39237;DHT22;36851;49.996;8.268;2022-08-05T10:23:03;28.30;87.40
39237;DHT22;36851;49.996;8.268;2022-08-05T10:25:35;28.20;87.10
39237;DHT22;36851;49.996;8.268;2022-08-05T10:28:02;28.20;87.00
39237;DHT22;36851;49.996;8.268;2022-08-05T10:30:43;28.20;87.00
39237;DHT22;36851;49.996;8.268;2022-08-05T10:33:31;28.20;87.40
39237;DHT22;36851;49.996;8.268;2022-08-05T10:36:01;28.30;87.70
39237;DHT22;36851;49.996;8.268;2022-08-05T10:38:32;28.30;87.60
39237;DHT22;36851;49.996;8.268;2022-08-05T10:43:50;28.30;88.60
39237;DHT22;36851;49.996;8.268;2022-08-05T10:46:21;28.30;88.30
39237;DHT22;36851;49.996;8.268;2022-08-05T10:48:56;28.30;88.50
39237;DHT22;36851;49.996;8.268;2022-08-05T10:51:40;28.30;89.00
39237;DHT22;36851;49.996;8.268;2022-08-05T10:54:44;28.30;88.40
39237;DHT22;36851;49.996;8.268;2022-08-05T10:57:26;28.30;88.20
39237;DHT22;36851;49.996;8.268;2022-08-05T11:06:04;28.30;89.20
39237;DHT22;36851;49.996;8.268;2022-08-05T11:11:31;28.30;89.70
39237;DHT22;36851;49.996;8.268;2022-08-05T11:14:11;28.20;88.30
39237;DHT22;36851;49.996;8.268;2022-08-05T11:16:38;27.90;88.40
39237;DHT22;36851;49.996;8.268;2022-08-05T11:19:28;27.80;88.70
39237;DHT22;36851;49.996;8.268;2022-08-05T11:36:10;27.90;89.70
39237;DHT22;36851;49.996;8.268;2022-08-05T11:41:15;27.80;89.80
39237;DHT22;36851;49.996;8.268;2022-08-05T11:46:46;27.70;90.20
39237;DHT22;36851;49.996;8.268;2022-08-05T11:49:34;27.90;90.10
39237;DHT22;36851;49.996;8.268;2022-08-05T11:52:02;27.90;90.00
39237;DHT22;36851;49.996;8.268;2022-08-05T11:54:37;27.90;89.70
39237;DHT22;36851;49.996;8.268;2022-08-05T11:57:07;27.90;89.70
39237;DHT22;36851;49.996;8.268;2022-08-05T11:59:52;27.90;90.00
39237;DHT22;36851;49.996;8.268;2022-08-05T12:02:26;28.00;90.40
39237;DHT22;36851;49.996;8.268;2022-08-05T12:04:59;28.00;90.10
39237;DHT22;36851;49.996;8.268;2022-08-05T12:07:32;28.00;90.20
39237;DHT22;36851;49.996;8.268;2022-08-05T12:10:19;28.00;90.00
39237;DHT22;36851;49.996;8.268;2022-08-05T12:12:51;27.90;90.40
39237;DHT22;36851;49.996;8.268;2022-08-05T12:15:26;28.00;90.20
39237;DHT22;36851;49.996;8.268;2022-08-05T12:18:04;28.10;90.30
39237;DHT22;36851;49.996;8.268;2022-08-05T12:20:38;28.10;90.50
39237;DHT22;36851;49.996;8.268;2022-08-05T12:23:08;28.10;90.50
39237;DHT22;36851;49.996;8.268;2022-08-05T12:25:51;28.10;90.50
39237;DHT22;36851;49.996;8.268;2022-08-05T12:28:35;28.10;90.30
39237;DHT22;36851;49.996;8.268;2022-08-05T12:31:03;28.10;90.20
39237;DHT22;36851;49.996;8.268;2022-08-05T12:33:31;28.10;90.20
39237;DHT22;36851;49.996;8.268;2022-08-05T12:36:04;28.10;90.30
39237;DHT22;36851;49.996;8.268;2022-08-05T12:38:37;28.00;90.30
39237;DHT22;36851;49.996;8.268;2022-08-05T12:41:11;28.10;90.20
39237;DHT22;36851;49.996;8.268;2022-08-05T12:43:53;28.10;90.30
39237;DHT22;36851;49.996;8.268;2022-08-05T12:48:59;28.10;90.20
39237;DHT22;36851;49.996;8.268;2022-08-05T12:51:27;28.10;90.10
39237;DHT22;36851;49.996;8.268;2022-08-05T12:54:24;28.10;90.00
39237;DHT22;36851;49.996;8.268;2022-08-05T12:56:56;28.20;90.00
39237;DHT22;36851;49.996;8.268;2022-08-05T12:59:24;28.20;89.80
39237;DHT22;36851;49.996;8.268;2022-08-05T13:02:14;28.20;89.70
39237;DHT22;36851;49.996;8.268;2022-08-05T13:04:42;28.20;89.50
39237;DHT22;36851;49.996;8.268;2022-08-05T13:07:21;28.20;89.30
39237;DHT22;36851;49.996;8.268;2022-08-05T13:10:09;28.20;89.20
39237;DHT22;36851;49.996;8.268;2022-08-05T13:12:43;28.20;88.80
39237;DHT22;36851;49.996;8.268;2022-08-05T13:15:32;28.20;88.80
39237;DHT22;36851;49.996;8.268;2022-08-05T13:18:19;28.20;88.70
39237;DHT22;36851;49.996;8.268;2022-08-05T13:20:47;28.20;88.70
39237;DHT22;36851;49.996;8.268;2022-08-05T13:23:15;28.20;88.70
39237;DHT22;36851;49.996;8.268;2022-08-05T13:25:49;28.20;88.60
39237;DHT22;36851;49.996;8.268;2022-08-05T13:28:27;28.20;88.80
39237;DHT22;36851;49.996;8.268;2022-08-05T13:30:54;28.20;89.20
39237;DHT22;36851;49.996;8.268;2022-08-05T13:33:23;28.20;89.00
39237;DHT22;36851;49.996;8.268;2022-08-05T13:36:10;28.20;89.20
39237;DHT22;36851;49.996;8.268;2022-08-05T13:38:40;28.20;89.50
39237;DHT22;36851;49.996;8.268;2022-08-05T13:41:09;28.20;89.20
39237;DHT22;36851;49.996;8.268;2022-08-05T13:43:37;28.20;89.40
39237;DHT22;36851;49.996;8.268;2022-08-05T13:46:21;28.20;89.70
39237;DHT22;36851;49.996;8.268;2022-08-05T13:49:08;28.20;89.90
39237;DHT22;36851;49.996;8.268;2022-08-05T13:51:38;28.20;90.00
39237;DHT22;36851;49.996;8.268;2022-08-05T13:54:08;28.20;90.10
39237;DHT22;36851;49.996;8.268;2022-08-05T13:56:39;28.20;90.10
39237;DHT22;36851;49.996;8.268;2022-08-05T13:59:21;28.30;90.20
39237;DHT22;36851;49.996;8.268;2022-08-05T14:01:54;28.30;90.30
39237;DHT22;36851;49.996;8.268;2022-08-05T14:04:26;28.30;90.40
39237;DHT22;36851;49.996;8.268;2022-08-05T14:07:15;28.30;90.40
39237;DHT22;36851;49.996;8.268;2022-08-05T14:10:03;28.40;90.70
39237;DHT22;36851;49.996;8.268;2022-08-05T14:12:34;28.50;90.30
39237;DHT22;36851;49.996;8.268;2022-08-05T14:15:02;28.50;90.40
39237;DHT22;36851;49.996;8.268;2022-08-05T14:17:49;28.40;90.30
39237;DHT22;36851;49.996;8.268;2022-08-05T14:20:21;28.40;90.20
39237;DHT22;36851;49.996;8.268;2022-08-05T14:22:53;28.40;90.10
39237;DHT22;36851;49.996;8.268;2022-08-05T14:25:21;28.40;90.10
39237;DHT22;36851;49.996;8.268;2022-08-05T14:27:54;28.40;90.10
39237;DHT22;36851;49.996;8.268;2022-08-05T14:30:21;28.40;90.10
39237;DHT22;36851;49.996;8.268;2022-08-05T14:32:52;28.30;90.00
39237;DHT22;36851;49.996;8.268;2022-08-05T14:35:19;28.30;90.00
39237;DHT22;36851;49.996;8.268;2022-08-05T14:37:48;28.30;90.00
39237;DHT22;36851;49.996;8.268;2022-08-05T14:40:21;28.30;90.00
39237;DHT22;36851;49.996;8.268;2022-08-05T14:42:50;28.30;89.90
39237;DHT22;36851;49.996;8.268;2022-08-05T14:45:17;28.20;89.70
39237;DHT22;36851;49.996;8.268;2022-08-05T14:47:45;28.30;89.30
39237;DHT22;36851;49.996;8.268;2022-08-05T14:50:32;28.20;89.40
39237;DHT22;36851;49.996;8.268;2022-08-05T14:53:05;28.20;89.40
39237;DHT22;36851;49.996;8.268;2022-08-05T14:55:32;28.20;89.20
39237;DHT22;36851;49.996;8.268;2022-08-05T14:58:06;28.20;89.00
39237;DHT22;36851;49.996;8.268;2022-08-05T15:00:38;28.30;88.90
39237;DHT22;36851;49.996;8.268;2022-08-05T15:03:29;28.30;89.00
39237;DHT22;36851;49.996;8.268;2022-08-05T15:06:05;28.30;88.70
39237;DHT22;36851;49.996;8.268;2022-08-05T15:08:40;28.20;88.70
39237;DHT22;36851;49.996;8.268;2022-08-05T15:11:27;28.10;88.50
39237;DHT22;36851;49.996;8.268;2022-08-05T15:14:14;28.20;88.90
39237;DHT22;36851;49.996;8.268;2022-08-05T15:17:00;28.20;88.40
39237;DHT22;36851;49.996;8.268;2022-08-05T15:19:27;28.20;88.70
39237;DHT22;36851;49.996;8.268;2022-08-05T15:21:56;28.20;88.40
39237;DHT22;36851;49.996;8.268;2022-08-05T15:24:26;28.20;88.20
39237;DHT22;36851;49.996;8.268;2022-08-05T15:26:56;28.10;88.20
39237;DHT22;36851;49.996;8.268;2022-08-05T15:29:23;28.10;88.20
39237;DHT22;36851;49.996;8.268;2022-08-05T15:31:56;28.10;88.20
39237;DHT22;36851;49.996;8.268;2022-08-05T15:34:31;28.10;88.10
39237;DHT22;36851;49.996;8.268;2022-08-05T15:37:00;28.10;88.10
39237;DHT22;36851;49.996;8.268;2022-08-05T15:39:40;28.10;87.90
39237;DHT22;36851;49.996;8.268;2022-08-05T15:42:27;28.10;87.90
39237;DHT22;36851;49.996;8.268;2022-08-05T15:45:15;28.10;87.70
39237;DHT22;36851;49.996;8.268;2022-08-05T15:47:44;28.00;87.90
39237;DHT22;36851;49.996;8.268;2022-08-05T15:50:13;28.00;88.10
39237;DHT22;36851;49.996;8.268;2022-08-05T15:52:42;28.10;87.90
39237;DHT22;36851;49.996;8.268;2022-08-05T15:55:21;28.10;87.70
39237;DHT22;36851;49.996;8.268;2022-08-05T15:58:08;28.10;87.60
39237;DHT22;36851;49.996;8.268;2022-08-05T16:00:42;28.10;87.70
39237;DHT22;36851;49.996;8.268;2022-08-05T16:03:30;28.20;87.60
39237;DHT22;36851;49.996;8.268;2022-08-05T16:06:01;28.30;87.50
39237;DHT22;36851;49.996;8.268;2022-08-05T16:08:30;28.30;87.00
39237;DHT22;36851;49.996;8.268;2022-08-05T16:10:57;28.20;87.30
39237;DHT22;36851;49.996;8.268;2022-08-05T16:13:25;28.30;86.90
39237;DHT22;36851;49.996;8.268;2022-08-05T16:16:03;28.20;87.10
39237;DHT22;36851;49.996;8.268;2022-08-05T16:18:31;28.20;86.60
39237;DHT22;36851;49.996;8.268;2022-08-05T16:21:18;28.10;86.70
39237;DHT22;36851;49.996;8.268;2022-08-05T16:24:05;28.20;86.70
39237;DHT22;36851;49.996;8.268;2022-08-05T16:29:18;28.10;86.80
39237;DHT22;36851;49.996;8.268;2022-08-05T16:31:47;28.00;86.60
39237;DHT22;36851;49.996;8.268;2022-08-05T16:34:23;28.00;86.50
39237;DHT22;36851;49.996;8.268;2022-08-05T16:36:52;28.00;86.80
39237;DHT22;36851;49.996;8.268;2022-08-05T16:39:20;28.10;86.60
39237;DHT22;36851;49.996;8.268;2022-08-05T16:42:07;28.10;86.50
39237;DHT22;36851;49.996;8.268;2022-08-05T16:44:43;28.10;86.20
39237;DHT22;36851;49.996;8.268;2022-08-05T16:47:20;28.10;83.50
39237;DHT22;36851;49.996;8.268;2022-08-05T16:50:03;28.00;82.50
39237;DHT22;36851;49.996;8.268;2022-08-05T16:52:31;28.00;82.20
39237;DHT22;36851;49.996;8.268;2022-08-05T16:54:59;27.90;82.00
39237;DHT22;36851;49.996;8.268;2022-08-05T16:57:26;27.90;82.10
39237;DHT22;36851;49.996;8.268;2022-08-05T17:00:14;27.80;82.40
39237;DHT22;36851;49.996;8.268;2022-08-05T17:03:01;27.80;81.80
39237;DHT22;36851;49.996;8.268;2022-08-05T17:05:29;27.80;82.00
39237;DHT22;36851;49.996;8.268;2022-08-05T17:07:57;27.70;81.70
39237;DHT22;36851;49.996;8.268;2022-08-05T17:10:24;27.70;81.50
39237;DHT22;36851;49.996;8.268;2022-08-05T17:12:56;27.70;82.10
39237;DHT22;36851;49.996;8.268;2022-08-05T17:15:24;27.60;82.10
39237;DHT22;36851;49.996;8.268;2022-08-05T17:18:11;27.50;81.20
39237;DHT22;36851;49.996;8.268;2022-08-05T17:20:40;27.40;80.60
39237;DHT22;36851;49.996;8.268;2022-08-05T17:23:10;27.20;80.60
39237;DHT22;36851;49.996;8.268;2022-08-05T17:25:57;27.20;80.20